Time;durP1;ratioP1;P1;durP2;ratioP2;P2;SDS_P1;SDS_P2;PMS_P1;PMS_P2;Temp;Humidity;BMP_temperature;BMP_pressure;BME280_temperature;BME280_humidity;BME280_pressure;Samples;Min_cycle;Max_cycle;Signal;HPM_P1;HPM_P2
2021/12/14 00:01:42;;;;;;;5.82;2.50;;;8.30;70.10;;;;;;2311378;54;20987;-81
2021/12/14 00:04:14;;;;;;;4.32;2.08;;;8.20;69.90;;;;;;2299309;56;21018;-81
2021/12/14 00:06:40;;;;;;;6.25;2.62;;;8.10;70.00;;;;;;2537920;53;21105;-80
2021/12/14 00:09:08;;;;;;;6.22;2.62;;;8.00;69.90;;;;;;2545346;53;21016;-81
2021/12/14 00:15:34;;;;;;;3.85;1.73;;;7.90;70.00;;;;;;2536544;53;21245;-80
2021/12/14 00:18:04;;;;;;;3.47;1.85;;;7.80;69.90;;;;;;2548139;53;21079;-81
2021/12/14 00:20:35;;;;;;;4.25;2.05;;;7.80;69.80;;;;;;2548010;53;20935;-81
2021/12/14 00:25:53;;;;;;;3.20;1.73;;;7.50;69.50;;;;;;2558912;53;20943;-81
2021/12/14 00:28:26;;;;;;;3.28;1.50;;;7.50;69.40;;;;;;2326163;54;21028;-80
2021/12/14 00:30:53;;;;;;;4.60;1.80;;;7.40;69.40;;;;;;2559230;53;21011;-81
2021/12/14 00:33:21;;;;;;;4.25;1.90;;;7.30;69.40;;;;;;2534465;54;21373;-81
2021/12/14 00:35:49;;;;;;;4.68;2.33;;;7.20;69.20;;;;;;2553146;53;21050;-80
2021/12/14 00:38:21;;;;;;;5.50;2.17;;;7.20;69.20;;;;;;2554542;53;21015;-80
2021/12/14 00:40:57;;;;;;;3.87;1.95;;;7.10;69.20;;;;;;2557093;53;21052;-80
2021/12/14 00:43:24;;;;;;;3.78;2.10;;;7.00;69.20;;;;;;2567732;53;21122;-81
2021/12/14 00:45:52;;;;;;;4.15;2.20;;;6.90;69.30;;;;;;2570664;53;20927;-81
2021/12/14 00:48:19;;;;;;;4.07;2.12;;;6.80;69.50;;;;;;2333179;54;21018;-81
2021/12/14 00:50:48;;;;;;;4.80;2.22;;;6.80;69.70;;;;;;2562261;53;20919;-80
2021/12/14 00:53:14;;;;;;;4.22;2.12;;;6.70;69.60;;;;;;2302666;54;21362;-81
2021/12/14 00:55:42;;;;;;;5.10;2.50;;;6.60;69.60;;;;;;2550835;53;20979;-81
2021/12/14 00:58:09;;;;;;;6.55;3.00;;;6.60;69.80;;;;;;2314448;54;20983;-81
2021/12/14 01:00:38;;;;;;;6.00;3.45;;;6.50;69.90;;;;;;2319069;54;20979;-81
2021/12/14 01:03:04;;;;;;;6.35;3.83;;;6.50;70.00;;;;;;2570904;53;21027;-81
2021/12/14 01:05:34;;;;;;;6.30;3.75;;;6.50;70.30;;;;;;2555796;53;20987;-81
2021/12/14 01:08:01;;;;;;;6.05;3.40;;;6.40;70.40;;;;;;2554938;53;21926;-81
2021/12/14 01:10:34;;;;;;;5.75;3.25;;;6.40;70.50;;;;;;2553910;53;20927;-82
2021/12/14 01:13:05;;;;;;;7.62;4.03;;;6.30;70.70;;;;;;2563102;53;21063;-80
2021/12/14 01:16:12;;;;;;;7.95;3.50;;;6.40;71.10;;;;;;2331884;54;21917;-81
2021/12/14 01:21:41;;;;;;;7.12;3.92;;;6.30;71.60;;;;;;2557687;53;20990;-81
2021/12/14 01:25:38;;;;;;;8.23;3.83;;;6.30;71.80;;;;;;2550023;53;21089;-80
2021/12/14 01:28:12;;;;;;;4.97;2.58;;;6.30;71.50;;;;;;2569146;53;21005;-81
2021/12/14 01:30:52;;;;;;;4.97;2.78;;;6.40;72.40;;;;;;2550296;53;21580;-81
2021/12/14 01:33:21;;;;;;;5.85;3.12;;;6.40;72.80;;;;;;2570363;53;20960;-81
2021/12/14 01:35:49;;;;;;;6.15;2.97;;;6.40;73.10;;;;;;2553071;53;20934;-80
2021/12/14 01:38:46;;;;;;;4.85;2.58;;;6.40;73.30;;;;;;2570381;53;20956;-81
2021/12/14 01:41:14;;;;;;;5.53;3.15;;;6.50;73.50;;;;;;2551516;53;20940;-81
2021/12/14 01:43:52;;;;;;;6.28;3.30;;;6.50;73.60;;;;;;2553315;53;20979;-81
2021/12/14 01:46:28;;;;;;;6.28;3.10;;;6.60;73.80;;;;;;2564760;53;20900;-81
2021/12/14 01:48:54;;;;;;;5.62;2.87;;;6.60;73.80;;;;;;2310095;54;21002;-81
2021/12/14 01:51:21;;;;;;;6.80;3.25;;;6.70;74.00;;;;;;2313545;54;20979;-81
2021/12/14 01:53:48;;;;;;;5.35;2.87;;;6.70;74.00;;;;;;2551659;53;21466;-81
2021/12/14 01:56:16;;;;;;;6.43;3.45;;;6.80;74.10;;;;;;2551521;53;20938;-81
2021/12/14 01:58:49;;;;;;;6.62;3.12;;;6.80;74.20;;;;;;2553142;53;20959;-81
2021/12/14 02:01:19;;;;;;;7.43;3.60;;;6.80;74.10;;;;;;2314264;54;20939;-82
2021/12/14 02:03:52;;;;;;;5.97;2.75;;;6.90;74.30;;;;;;2550673;53;20970;-81
2021/12/14 02:06:21;;;;;;;6.90;3.17;;;6.90;74.20;;;;;;2552934;53;20955;-81
2021/12/14 02:08:56;;;;;;;6.53;3.40;;;7.00;74.10;;;;;;2564143;53;20979;-81
2021/12/14 02:11:22;;;;;;;7.45;4.10;;;7.00;73.90;;;;;;2557825;53;20978;-80
2021/12/14 02:13:52;;;;;;;6.50;3.75;;;7.00;73.60;;;;;;2570645;53;20955;-81
2021/12/14 02:16:18;;;;;;;6.50;4.18;;;7.00;73.40;;;;;;2311186;54;22125;-81
2021/12/14 02:18:55;;;;;;;7.10;3.83;;;7.00;73.20;;;;;;2332147;54;20919;-81
2021/12/14 02:21:21;;;;;;;6.95;3.75;;;7.00;73.00;;;;;;2566056;53;21039;-81
2021/12/14 02:23:49;;;;;;;6.18;3.47;;;7.00;72.90;;;;;;2315522;54;21055;-81
2021/12/14 02:26:19;;;;;;;5.37;3.35;;;7.00;72.80;;;;;;2567626;53;20927;-80
2021/12/14 02:28:46;;;;;;;7.00;4.30;;;7.10;72.70;;;;;;2567871;53;21023;-81
2021/12/14 02:31:13;;;;;;;8.63;4.40;;;7.00;72.60;;;;;;2561980;53;20979;-81
2021/12/14 02:33:41;;;;;;;7.07;4.00;;;7.00;72.70;;;;;;2562626;53;20951;-81
2021/12/14 02:36:10;;;;;;;6.35;3.75;;;7.00;72.80;;;;;;2562445;53;20935;-81
2021/12/14 02:39:04;;;;;;;7.30;3.95;;;7.00;72.80;;;;;;2552435;53;20959;-81
2021/12/14 02:41:30;;;;;;;6.18;3.40;;;7.00;72.80;;;;;;2324840;54;20923;-81
2021/12/14 02:43:57;;;;;;;6.28;3.60;;;7.00;72.80;;;;;;2550906;53;20919;-81
2021/12/14 02:46:30;;;;;;;7.10;3.85;;;7.00;72.90;;;;;;2313580;55;21002;-81
2021/12/14 02:48:58;;;;;;;5.93;3.28;;;7.10;73.10;;;;;;2332955;53;20975;-81
2021/12/14 02:51:27;;;;;;;6.05;3.22;;;7.00;73.10;;;;;;2310196;54;20943;-81
2021/12/14 02:53:57;;;;;;;6.55;3.37;;;7.00;73.20;;;;;;2552053;53;21038;-81
2021/12/14 02:56:26;;;;;;;6.22;3.20;;;7.10;73.40;;;;;;2549038;53;21046;-81
2021/12/14 02:58:57;;;;;;;6.35;3.55;;;7.10;73.50;;;;;;2566251;53;21095;-80
2021/12/14 03:01:23;;;;;;;7.68;3.22;;;7.10;73.50;;;;;;2291943;54;20951;-81
2021/12/14 03:03:49;;;;;;;8.57;4.00;;;7.10;73.50;;;;;;2299033;55;20974;-81
2021/12/14 03:06:21;;;;;;;6.80;3.60;;;7.20;73.60;;;;;;2304218;54;20983;-81
2021/12/14 03:08:57;;;;;;;5.93;3.60;;;7.20;73.60;;;;;;2308761;54;20955;-81
2021/12/14 03:11:23;;;;;;;6.37;3.58;;;7.20;73.60;;;;;;2307613;54;20982;-81
2021/12/14 03:13:53;;;;;;;6.78;3.22;;;7.30;73.60;;;;;;2556139;53;20991;-81
2021/12/14 03:16:26;;;;;;;6.80;4.05;;;7.20;73.50;;;;;;2543312;53;20923;-80
2021/12/14 03:18:53;;;;;;;7.65;4.37;;;7.30;73.60;;;;;;2553119;53;21071;-80
2021/12/14 03:21:25;;;;;;;7.60;4.00;;;7.30;73.60;;;;;;2549230;53;20963;-81
2021/12/14 03:24:04;;;;;;;7.82;4.45;;;7.30;73.60;;;;;;2324458;54;21293;-81
2021/12/14 03:26:32;;;;;;;7.70;4.40;;;7.40;73.70;;;;;;2541664;53;21015;-80
2021/12/14 03:29:03;;;;;;;8.43;4.50;;;7.40;73.80;;;;;;2542962;53;21066;-80
2021/12/14 03:31:37;;;;;;;7.70;4.53;;;7.40;73.80;;;;;;2302154;55;20987;-81
2021/12/14 03:34:17;;;;;;;8.15;4.07;;;7.50;73.90;;;;;;2300400;55;20951;-81
2021/12/14 03:36:49;;;;;;;8.98;4.53;;;7.50;73.90;;;;;;2540901;53;21050;-80
2021/12/14 03:39:35;;;;;;;8.07;4.50;;;7.50;73.90;;;;;;2305654;54;20947;-81
2021/12/14 03:42:05;;;;;;;8.82;4.50;;;7.60;74.00;;;;;;2319411;54;20952;-81
2021/12/14 03:44:40;;;;;;;8.30;3.97;;;7.50;73.90;;;;;;2542024;53;21082;-80
2021/12/14 03:47:11;;;;;;;7.07;3.50;;;7.60;74.00;;;;;;2542212;53;20962;-80
2021/12/14 03:49:42;;;;;;;7.82;4.03;;;7.60;74.00;;;;;;2298380;55;20981;-81
2021/12/14 03:52:13;;;;;;;11.15;5.10;;;7.60;73.90;;;;;;2540530;53;21046;-80
2021/12/14 03:54:39;;;;;;;8.63;4.70;;;7.70;73.80;;;;;;2305510;54;21031;-81
2021/12/14 03:57:06;;;;;;;10.02;4.90;;;7.70;73.80;;;;;;2303878;56;20955;-81
2021/12/14 03:59:32;;;;;;;8.73;4.03;;;7.70;73.50;;;;;;2538858;53;20998;-81
2021/12/14 04:01:59;;;;;;;8.63;4.30;;;7.70;73.50;;;;;;2539972;53;21927;-81
2021/12/14 04:04:31;;;;;;;8.00;3.92;;;7.70;73.50;;;;;;2542805;53;21014;-81
2021/12/14 04:06:58;;;;;;;9.75;3.85;;;7.70;73.40;;;;;;2305650;55;20959;-81
2021/12/14 04:09:28;;;;;;;8.43;4.10;;;7.70;73.30;;;;;;2542327;53;22032;-81
2021/12/14 04:11:54;;;;;;;8.80;4.07;;;7.70;73.40;;;;;;2533797;53;21007;-81
2021/12/14 04:14:21;;;;;;;8.73;3.72;;;7.70;73.40;;;;;;2557524;53;20920;-81
2021/12/14 04:16:49;;;;;;;8.27;4.30;;;7.70;73.50;;;;;;2549245;53;20987;-81
2021/12/14 04:19:23;;;;;;;9.00;4.00;;;7.70;73.50;;;;;;2299891;55;21977;-81
2021/12/14 04:21:49;;;;;;;10.02;4.40;;;7.70;73.50;;;;;;2545005;53;20989;-80
2021/12/14 04:24:23;;;;;;;8.57;4.05;;;7.70;73.50;;;;;;2541637;53;21046;-81
2021/12/14 04:26:50;;;;;;;12.45;4.30;;;7.70;73.40;;;;;;2543045;53;20987;-81
2021/12/14 04:29:16;;;;;;;10.00;3.97;;;7.70;73.50;;;;;;2544514;53;21087;-81
2021/12/14 04:31:43;;;;;;;7.68;3.80;;;7.70;73.40;;;;;;2302893;54;21025;-81
2021/12/14 04:34:10;;;;;;;9.25;4.00;;;7.70;73.30;;;;;;2537874;53;21945;-81
2021/12/14 04:36:39;;;;;;;7.43;3.65;;;7.70;73.50;;;;;;2561667;53;20967;-81
2021/12/14 04:52:36;;;;;;;7.80;3.42;;;7.70;72.90;;;;;;2544256;53;20961;-81
2021/12/14 04:55:08;;;;;;;6.20;3.12;;;7.80;72.90;;;;;;2561642;53;21325;-81
2021/12/14 04:57:45;;;;;;;6.90;3.15;;;7.70;72.80;;;;;;2544174;53;21050;-81
2021/12/14 05:00:46;;;;;;;6.55;3.25;;;7.80;72.90;;;;;;2541547;53;20971;-80
2021/12/14 05:03:21;;;;;;;6.22;3.12;;;7.70;72.50;;;;;;2538667;53;20946;-80
2021/12/14 05:05:50;;;;;;;7.90;4.50;;;7.70;72.80;;;;;;2550142;53;21019;-81
2021/12/14 05:11:29;;;;;;;6.12;3.67;;;7.70;72.80;;;;;;2309342;54;20959;-81
2021/12/14 05:14:32;;;;;;;8.73;4.40;;;7.70;72.70;;;;;;2539405;53;20931;-80
2021/12/14 05:17:00;;;;;;;6.57;3.55;;;7.70;72.30;;;;;;2538768;53;21047;-81
2021/12/14 05:19:29;;;;;;;9.70;4.70;;;7.70;72.70;;;;;;2538049;53;21484;-80
2021/12/14 05:22:19;;;;;;;7.82;3.95;;;7.70;72.70;;;;;;2538463;53;20935;-81
2021/12/14 05:24:49;;;;;;;7.72;4.00;;;7.70;72.80;;;;;;2544648;53;20932;-81
2021/12/14 05:27:23;;;;;;;13.75;5.07;;;7.70;72.90;;;;;;2318176;54;21020;-81
2021/12/14 05:29:50;;;;;;;9.00;4.62;;;7.70;73.00;;;;;;2309206;54;21261;-82
2021/12/14 05:32:17;;;;;;;9.55;4.75;;;7.70;72.90;;;;;;2556386;53;20911;-80
2021/12/14 05:34:46;;;;;;;10.15;4.87;;;7.70;72.90;;;;;;2536720;53;22025;-81
2021/12/14 05:37:17;;;;;;;8.70;4.57;;;7.70;72.80;;;;;;2318697;54;22120;-81
2021/12/14 05:39:53;;;;;;;8.07;4.05;;;7.60;72.70;;;;;;2556377;53;21015;-80
2021/12/14 05:45:07;;;;;;;7.20;3.50;;;7.60;72.80;;;;;;2535734;53;21387;-81
2021/12/14 05:47:40;;;;;;;6.93;3.58;;;7.70;73.00;;;;;;2306003;54;22073;-80
2021/12/14 05:50:07;;;;;;;6.12;3.17;;;7.60;73.00;;;;;;2549985;53;20948;-80
2021/12/14 05:52:33;;;;;;;9.10;4.93;;;7.70;73.30;;;;;;2554923;53;22275;-80
2021/12/14 05:55:00;;;;;;;10.98;5.45;;;7.60;73.20;;;;;;2555666;53;21454;-80
2021/12/14 05:57:26;;;;;;;9.18;5.03;;;7.70;73.10;;;;;;2520425;53;22033;-80
2021/12/14 05:59:54;;;;;;;7.90;4.18;;;7.70;73.00;;;;;;2538312;53;21006;-81
2021/12/14 06:02:20;;;;;;;8.45;3.85;;;7.70;73.00;;;;;;2538365;53;20945;-82
2021/12/14 06:04:49;;;;;;;7.53;3.87;;;7.70;73.10;;;;;;2323742;54;22033;-80
2021/12/14 06:07:15;;;;;;;8.20;4.40;;;7.70;73.10;;;;;;2555523;53;20895;-81
2021/12/14 06:09:46;;;;;;;8.38;4.35;;;7.70;73.00;;;;;;2513176;53;20947;-80
2021/12/14 06:12:21;;;;;;;7.87;4.22;;;7.70;72.80;;;;;;2543074;53;22236;-81
2021/12/14 06:14:54;;;;;;;8.80;4.43;;;7.70;72.50;;;;;;2549831;53;21506;-82
2021/12/14 06:17:22;;;;;;;9.02;4.37;;;7.60;72.40;;;;;;2537804;53;21010;-81
2021/12/14 06:19:51;;;;;;;9.07;4.55;;;7.60;72.00;;;;;;2539499;53;21070;-80
2021/12/14 06:22:18;;;;;;;7.25;3.42;;;7.60;71.90;;;;;;2552545;53;20884;-80
2021/12/14 06:24:47;;;;;;;7.22;3.55;;;7.50;71.90;;;;;;2303910;54;20935;-81
2021/12/14 06:27:15;;;;;;;8.68;3.67;;;7.50;71.90;;;;;;2317988;54;21386;-81
2021/12/14 06:29:52;;;;;;;7.12;3.45;;;7.50;71.90;;;;;;2537893;53;20929;-81
2021/12/14 06:32:33;;;;;;;8.30;4.60;;;7.40;71.90;;;;;;2535310;53;20990;-80
2021/12/14 06:35:06;;;;;;;6.87;3.58;;;7.40;72.00;;;;;;2318013;54;20997;-81
2021/12/14 06:38:23;;;;;;;7.53;3.80;;;7.40;72.20;;;;;;2533393;53;21139;-81
2021/12/14 06:40:58;;;;;;;8.32;4.53;;;7.40;72.20;;;;;;2532936;53;20959;-81
2021/12/14 06:43:27;;;;;;;7.60;3.70;;;7.40;72.40;;;;;;2536197;53;20943;-81
2021/12/14 06:45:56;;;;;;;7.82;3.50;;;7.40;72.50;;;;;;2538277;53;21106;-81
2021/12/14 06:49:24;;;;;;;7.05;3.70;;;7.30;72.60;;;;;;2317849;54;21438;-81
2021/12/14 06:51:53;;;;;;;8.25;3.92;;;7.30;72.70;;;;;;2543153;53;21067;-81
2021/12/14 06:54:29;;;;;;;8.40;4.00;;;7.40;72.80;;;;;;2550094;53;20946;-80
2021/12/14 06:56:58;;;;;;;7.75;3.72;;;7.30;72.70;;;;;;2538216;53;21507;-81
2021/12/14 06:59:31;;;;;;;7.53;3.45;;;7.40;72.90;;;;;;2538443;53;22206;-81
2021/12/14 07:01:59;;;;;;;7.30;3.60;;;7.30;72.90;;;;;;2557311;53;20971;-81
2021/12/14 07:04:30;;;;;;;7.62;3.67;;;7.40;72.90;;;;;;2313796;54;21845;-81
2021/12/14 07:07:02;;;;;;;10.00;4.75;;;7.40;73.00;;;;;;2550198;53;22129;-80
2021/12/14 07:09:30;;;;;;;;;;;7.40;72.90;;;;;;2312535;54;20959;-81
2021/12/14 07:12:08;;;;;;;7.72;3.65;;;7.40;72.20;;;;;;2538156;53;20449;-81
2021/12/14 07:14:58;;;;;;;8.43;3.78;;;7.40;72.60;;;;;;2311023;54;21030;-80
2021/12/14 07:17:42;;;;;;;10.90;5.10;;;7.40;72.60;;;;;;2555522;53;21374;-81
2021/12/14 07:20:26;;;;;;;7.87;3.70;;;7.40;72.80;;;;;;2543514;53;22049;-81
2021/12/14 07:23:06;;;;;;;7.10;3.50;;;7.40;72.70;;;;;;2538160;53;21066;-81
2021/12/14 07:25:39;;;;;;;8.25;3.80;;;7.40;72.80;;;;;;2538119;53;20943;-81
2021/12/14 07:28:19;;;;;;;7.80;3.92;;;7.40;72.90;;;;;;2537488;53;20971;-80
2021/12/14 07:30:53;;;;;;;6.70;3.50;;;7.40;73.00;;;;;;2277441;54;21095;-80
2021/12/14 07:33:29;;;;;;;7.97;4.00;;;7.40;73.10;;;;;;2299863;54;21547;-81
2021/12/14 07:36:06;;;;;;;6.87;3.53;;;7.40;73.00;;;;;;2536376;53;21534;-81
2021/12/14 07:38:46;;;;;;;7.43;3.47;;;7.40;73.00;;;;;;2549904;53;20960;-80
2021/12/14 07:41:36;;;;;;;6.25;2.97;;;7.50;73.10;;;;;;2535838;53;21366;-82
2021/12/14 07:44:25;;;;;;;7.28;3.62;;;7.40;73.00;;;;;;2537024;53;21003;-81
2021/12/14 07:47:04;;;;;;;7.87;4.20;;;7.50;73.00;;;;;;2542541;53;20927;-81
2021/12/14 07:49:35;;;;;;;8.90;4.18;;;7.50;73.00;;;;;;2307932;54;21195;-81
2021/12/14 07:52:14;;;;;;;7.43;4.22;;;7.50;73.10;;;;;;2299717;54;20931;-81
2021/12/14 07:54:47;;;;;;;8.02;4.37;;;7.50;72.90;;;;;;2552718;53;21949;-80
2021/12/14 07:57:25;;;;;;;7.65;4.10;;;7.50;72.90;;;;;;2537222;53;20975;-81
2021/12/14 08:00:11;;;;;;;9.00;4.53;;;7.50;73.00;;;;;;2536909;53;20923;-81
2021/12/14 08:02:39;;;;;;;6.90;3.45;;;7.50;73.00;;;;;;2303609;54;21010;-81
2021/12/14 08:05:52;;;;;;;8.15;4.20;;;7.50;73.10;;;;;;2310661;54;21544;-80
2021/12/14 08:08:31;;;;;;;7.50;3.83;;;7.60;72.90;;;;;;2543341;53;20899;-81
2021/12/14 08:13:47;;;;;;;9.88;5.45;;;7.60;73.40;;;;;;2306689;54;21069;-81
2021/12/14 08:16:13;;;;;;;9.65;5.65;;;7.60;73.40;;;;;;2536842;53;20947;-81
2021/12/14 08:18:40;;;;;;;9.35;5.05;;;7.60;73.50;;;;;;2547608;53;20955;-81
2021/12/14 08:21:31;;;;;;;12.18;5.32;;;7.60;73.50;;;;;;2539184;53;20958;-81
2021/12/14 08:24:03;;;;;;;8.93;5.03;;;7.60;73.60;;;;;;2534239;53;20932;-81
2021/12/14 08:26:50;;;;;;;6.87;4.00;;;7.60;73.60;;;;;;2536802;53;20991;-81
2021/12/14 08:29:21;;;;;;;7.62;3.78;;;7.70;73.50;;;;;;2311598;54;20884;-82
2021/12/14 08:32:33;;;;;;;6.57;3.92;;;7.70;73.60;;;;;;2541569;53;21561;-80
2021/12/14 08:35:00;;;;;;;7.32;3.92;;;7.70;73.10;;;;;;2316751;54;21836;-81
2021/12/14 08:37:37;;;;;;;6.75;3.97;;;7.70;73.50;;;;;;2299580;54;20936;-80
2021/12/14 08:40:08;;;;;;;8.68;4.37;;;7.70;73.20;;;;;;2535897;53;21524;-80
2021/12/14 08:42:59;;;;;;;6.00;3.67;;;7.80;73.30;;;;;;2553853;53;20924;-80
2021/12/14 08:45:27;;;;;;;8.43;4.62;;;7.80;73.20;;;;;;2303108;54;22287;-80
2021/12/14 08:48:57;;;;;;;7.15;4.40;;;7.80;73.30;;;;;;2300017;55;20991;-80
2021/12/14 08:51:29;;;;;;;7.90;4.60;;;7.80;72.60;;;;;;2317211;54;21050;-81
2021/12/14 08:54:18;;;;;;;9.50;5.12;;;7.80;73.10;;;;;;2550063;53;20955;-81
2021/12/14 08:56:57;;;;;;;8.63;5.18;;;7.80;72.90;;;;;;2543006;53;20956;-81
2021/12/14 08:59:23;;;;;;;7.43;4.53;;;7.80;72.80;;;;;;2277440;54;21006;-81
2021/12/14 09:01:51;;;;;;;9.48;4.97;;;7.80;73.10;;;;;;2553964;53;20967;-81
2021/12/14 09:04:36;;;;;;;9.07;5.28;;;7.70;73.10;;;;;;2537935;53;20993;-81
2021/12/14 09:07:15;;;;;;;10.00;5.65;;;7.80;73.30;;;;;;2536929;53;20959;-81
2021/12/14 09:09:41;;;;;;;7.55;4.72;;;7.80;73.00;;;;;;2547436;53;20907;-80
2021/12/14 09:12:24;;;;;;;8.20;4.85;;;7.90;73.30;;;;;;2314101;54;20968;-80
2021/12/14 09:14:51;;;;;;;6.10;3.85;;;7.90;73.20;;;;;;2545979;53;20979;-81
2021/12/14 09:17:18;;;;;;;7.95;4.18;;;7.90;73.40;;;;;;2553371;53;21358;-81
2021/12/14 09:19:50;;;;;;;8.88;4.72;;;7.90;73.50;;;;;;2300245;54;20959;-81
2021/12/14 09:22:18;;;;;;;;;;;7.90;73.50;;;;;;2559241;53;20923;-80
2021/12/14 09:24:44;;;;;;;5.82;3.25;;;7.90;72.80;;;;;;2537889;53;20115;-81
2021/12/14 09:27:15;;;;;;;7.53;4.05;;;7.90;73.50;;;;;;2537586;53;20907;-81
2021/12/14 09:29:41;;;;;;;7.10;3.60;;;8.00;73.60;;;;;;2542252;53;20940;-81
2021/12/14 09:32:09;;;;;;;7.80;4.03;;;8.00;73.80;;;;;;2548524;53;20939;-81
2021/12/14 09:34:37;;;;;;;6.40;3.33;;;8.00;74.00;;;;;;2314806;54;21160;-81
2021/12/14 09:37:07;;;;;;;9.18;4.25;;;8.00;74.30;;;;;;2546397;53;21039;-80
2021/12/14 09:39:36;;;;;;;8.27;4.32;;;8.10;74.50;;;;;;2538887;53;21125;-81
2021/12/14 09:42:06;;;;;;;7.37;4.18;;;8.20;74.80;;;;;;2537627;53;21007;-80
2021/12/14 09:44:32;;;;;;;8.30;4.43;;;8.20;74.90;;;;;;2536673;53;20951;-80
2021/12/14 09:47:12;;;;;;;7.28;4.30;;;8.30;75.10;;;;;;2300454;54;24826;-80
2021/12/14 09:49:38;;;;;;;7.65;4.15;;;8.40;75.30;;;;;;2505404;54;20971;-80
2021/12/14 09:52:08;;;;;;;7.47;3.75;;;8.40;75.40;;;;;;2537006;53;21303;-81
2021/12/14 09:54:34;;;;;;;8.57;4.12;;;8.50;75.70;;;;;;2505629;54;21034;-81
2021/12/14 09:57:11;;;;;;;8.88;4.18;;;8.60;75.60;;;;;;2536951;53;20911;-81
2021/12/14 09:59:37;;;;;;;8.52;4.72;;;8.70;75.60;;;;;;2284854;54;21423;-80
2021/12/14 10:02:15;;;;;;;8.43;4.82;;;8.80;75.50;;;;;;2550718;53;20951;-81
2021/12/14 10:04:46;;;;;;;8.55;4.90;;;8.90;75.10;;;;;;2307622;54;21514;-81
2021/12/14 10:07:12;;;;;;;8.00;4.43;;;8.90;75.40;;;;;;2547126;53;20979;-81
2021/12/14 10:09:43;;;;;;;8.02;4.75;;;8.90;74.50;;;;;;2535386;53;20931;-81
2021/12/14 10:12:49;;;;;;;6.80;3.87;;;9.00;74.30;;;;;;2321722;54;20970;-81
2021/12/14 10:15:57;;;;;;;7.47;3.80;;;9.10;74.00;;;;;;2538188;54;20988;-80
2021/12/14 10:18:38;;;;;;;8.02;3.78;;;9.10;73.50;;;;;;2526755;53;22152;-81
2021/12/14 10:21:14;;;;;;;7.75;4.07;;;9.10;73.50;;;;;;2531851;53;21163;-81
2021/12/14 10:23:41;;;;;;;8.20;4.32;;;9.10;73.50;;;;;;2302209;54;20999;-81
2021/12/14 10:26:08;;;;;;;7.82;4.35;;;9.10;73.50;;;;;;2524953;53;21098;-80
2021/12/14 10:28:35;;;;;;;8.20;4.65;;;9.10;73.50;;;;;;2294819;57;21119;-81
2021/12/14 10:31:05;;;;;;;8.30;4.60;;;9.10;73.20;;;;;;2294984;57;21656;-81
2021/12/14 10:33:33;;;;;;;7.45;4.50;;;9.10;73.20;;;;;;2532752;53;21765;-81
2021/12/14 10:36:05;;;;;;;7.60;4.30;;;9.10;73.10;;;;;;2531618;53;21071;-81
2021/12/14 10:38:40;;;;;;;8.35;4.40;;;9.10;73.00;;;;;;2525201;53;21210;-81
2021/12/14 10:43:58;;;;;;;7.60;4.37;;;9.00;72.70;;;;;;2296070;57;21071;-81
2021/12/14 10:46:28;;;;;;;6.95;4.30;;;9.00;72.80;;;;;;2530637;53;21474;-80
2021/12/14 10:48:54;;;;;;;8.15;4.82;;;9.00;72.90;;;;;;2522462;53;21050;-81
2021/12/14 10:51:28;;;;;;;7.60;4.03;;;9.00;73.00;;;;;;2532275;53;21055;-79
2021/12/14 10:53:56;;;;;;;7.72;4.28;;;9.10;73.30;;;;;;2530763;53;21064;-81
2021/12/14 10:56:39;;;;;;;8.63;4.60;;;9.00;73.30;;;;;;2532315;53;21202;-81
2021/12/14 10:59:05;;;;;;;9.32;4.82;;;9.00;73.10;;;;;;2525766;53;21067;-81
2021/12/14 11:01:34;;;;;;;9.30;4.37;;;9.00;73.10;;;;;;2531378;53;21654;-81
2021/12/14 11:04:07;;;;;;;8.00;4.53;;;9.00;73.30;;;;;;2537024;53;21241;-81
2021/12/14 11:06:34;;;;;;;8.15;4.18;;;9.10;73.50;;;;;;2305748;57;21059;-81
2021/12/14 11:12:31;;;;;;;7.62;4.70;;;9.10;73.60;;;;;;2539344;53;21000;-81
2021/12/14 11:21:17;;;;;;;6.80;3.90;;;9.20;72.90;;;;;;2304193;55;21055;-81
2021/12/14 11:23:46;;;;;;;6.60;3.20;;;9.20;73.20;;;;;;2292024;57;21067;-81
2021/12/14 11:26:21;;;;;;;6.22;3.28;;;9.20;74.20;;;;;;2536884;53;21083;-81
2021/12/14 11:28:55;;;;;;;8.43;3.92;;;9.20;74.30;;;;;;2540035;53;20928;-81
2021/12/14 11:32:22;;;;;;;7.55;3.97;;;9.30;74.50;;;;;;2554115;53;20960;-81
2021/12/14 11:34:48;;;;;;;6.28;3.83;;;9.40;74.00;;;;;;2322314;54;20912;-80
2021/12/14 11:37:20;;;;;;;7.18;3.95;;;9.50;74.70;;;;;;2316692;54;20991;-81
2021/12/14 11:39:51;;;;;;;8.20;4.55;;;9.50;74.40;;;;;;2308495;54;20947;-80
2021/12/14 11:42:24;;;;;;;8.27;4.57;;;9.50;74.30;;;;;;2548024;53;21994;-81
2021/12/14 11:44:56;;;;;;;8.90;4.85;;;9.50;74.20;;;;;;2556961;53;20920;-81
2021/12/14 11:51:12;;;;;;;8.80;5.05;;;9.60;74.20;;;;;;2288493;54;1519128;-80
2021/12/14 11:53:46;;;;;;;7.57;4.10;;;9.70;73.50;;;;;;2516267;54;20971;-82
2021/12/14 11:56:15;;;;;;;6.70;4.00;;;9.70;74.50;;;;;;2536616;53;20928;-80
2021/12/14 11:58:51;;;;;;;7.07;4.60;;;9.70;75.10;;;;;;2539051;53;20900;-80
2021/12/14 12:01:34;;;;;;;7.90;4.90;;;9.70;74.30;;;;;;2545113;53;20951;-81
2021/12/14 12:04:21;;;;;;;7.05;4.18;;;9.80;74.00;;;;;;2547182;53;20971;-80
2021/12/14 12:10:09;;;;;;;6.32;4.05;;;9.80;74.00;;;;;;2556006;53;20924;-81
2021/12/14 12:12:38;;;;;;;9.50;4.62;;;9.90;74.50;;;;;;2557180;53;21019;-81
2021/12/14 12:15:18;;;;;;;11.65;6.30;;;9.90;74.70;;;;;;2330172;54;21334;-81
2021/12/14 12:18:03;;;;;;;9.68;5.45;;;10.00;73.80;;;;;;2286669;54;20987;-81
2021/12/14 12:20:45;;;;;;;9.60;5.15;;;10.00;73.50;;;;;;2308735;54;21058;-81
2021/12/14 12:23:13;;;;;;;;;;;10.10;73.90;;;;;;2316155;55;20931;-81
2021/12/14 12:25:45;;;;;;;6.78;3.92;;;10.20;72.90;;;;;;2555584;53;20095;-80
2021/12/14 12:28:15;;;;;;;;;;;10.20;73.80;;;;;;2530281;54;20943;-81
2021/12/14 12:31:11;;;;;;;6.47;3.03;;;10.30;72.70;;;;;;2538387;53;20884;-80
2021/12/14 12:33:39;;;;;;;6.60;3.67;;;10.30;73.20;;;;;;2307871;54;21681;-81
2021/12/14 12:36:30;;;;;;;7.18;4.40;;;10.30;73.60;;;;;;2547039;53;21657;-80
2021/12/14 12:39:10;;;;;;;8.90;4.28;;;10.40;73.90;;;;;;2309209;55;20939;-81
2021/12/14 12:41:57;;;;;;;8.70;5.07;;;10.40;74.00;;;;;;2547516;53;22080;-81
2021/12/14 12:44:40;;;;;;;8.48;5.20;;;10.50;73.70;;;;;;2548860;53;20947;-81
2021/12/14 12:47:16;;;;;;;7.55;4.90;;;10.50;73.10;;;;;;2561587;53;20947;-80
2021/12/14 12:49:44;;;;;;;7.78;4.80;;;10.60;73.20;;;;;;2547244;53;20943;-81
2021/12/14 12:52:38;;;;;;;9.00;5.10;;;10.60;72.90;;;;;;2309657;54;21003;-81
2021/12/14 12:55:15;;;;;;;9.60;5.30;;;10.50;72.40;;;;;;2329592;54;21459;-80
2021/12/14 12:58:09;;;;;;;8.05;5.37;;;10.60;72.60;;;;;;2555581;53;21580;-80
2021/12/14 13:00:44;;;;;;;11.07;6.18;;;10.60;72.20;;;;;;2317511;55;20967;-81
2021/12/14 13:03:31;;;;;;;8.65;5.53;;;10.50;72.30;;;;;;2555497;53;20971;-81
2021/12/14 13:06:00;;;;;;;10.23;6.00;;;10.50;72.20;;;;;;2556225;53;20951;-80
2021/12/14 13:08:30;;;;;;;8.93;5.75;;;10.50;72.30;;;;;;2555396;53;21031;-81
2021/12/14 13:11:16;;;;;;;8.40;5.60;;;10.50;72.40;;;;;;2555364;53;20940;-81
2021/12/14 13:13:51;;;;;;;9.35;5.87;;;10.50;72.30;;;;;;2556374;53;20972;-80
2021/12/14 13:16:51;;;;;;;9.52;6.28;;;10.60;72.60;;;;;;2332647;54;21867;-82
2021/12/14 13:19:23;;;;;;;9.23;5.95;;;10.60;72.10;;;;;;2554678;53;20900;-81
2021/12/14 13:22:49;;;;;;;10.68;6.70;;;10.60;72.80;;;;;;2571872;53;20943;-81
2021/12/14 13:25:43;;;;;;;9.93;6.35;;;10.60;71.90;;;;;;2555585;53;20943;-81
2021/12/14 13:28:11;;;;;;;10.90;5.65;;;10.70;72.10;;;;;;2565751;53;21881;-80
2021/12/14 13:30:37;;;;;;;10.27;6.55;;;10.70;72.50;;;;;;2563956;53;20995;-80
2021/12/14 13:33:03;;;;;;;10.38;6.70;;;10.70;72.50;;;;;;2571434;53;21869;-81
2021/12/14 13:35:32;;;;;;;13.32;8.25;;;10.60;72.20;;;;;;2566773;53;20991;-81
2021/12/14 13:38:05;;;;;;;13.27;8.35;;;10.70;72.20;;;;;;2324536;54;21022;-81
2021/12/14 13:40:43;;;;;;;12.35;7.15;;;10.60;72.00;;;;;;2326268;54;21004;-82
2021/12/14 13:44:10;;;;;;;12.32;6.72;;;10.60;71.70;;;;;;2563360;53;20943;-81
2021/12/14 13:46:36;;;;;;;15.02;8.52;;;10.60;71.10;;;;;;2572810;53;20976;-81
2021/12/14 13:49:03;;;;;;;15.52;8.63;;;10.60;72.00;;;;;;2555587;53;21067;-81
2021/12/14 13:51:30;;;;;;;17.20;9.98;;;10.60;72.00;;;;;;2555415;53;20972;-81
2021/12/14 13:53:57;;;;;;;13.13;8.25;;;10.60;72.20;;;;;;2555470;53;20995;-81
2021/12/14 13:56:26;;;;;;;12.70;7.70;;;10.60;72.50;;;;;;2554703;53;21514;-82
2021/12/14 13:58:54;;;;;;;14.15;8.32;;;10.60;72.50;;;;;;2322204;54;20998;-81
2021/12/14 14:01:24;;;;;;;11.18;7.47;;;10.60;72.60;;;;;;2331386;54;20947;-81
2021/12/14 14:03:55;;;;;;;12.63;7.80;;;10.60;72.40;;;;;;2552366;53;20919;-81
2021/12/14 14:06:22;;;;;;;12.80;8.17;;;10.60;72.20;;;;;;2316662;55;21022;-81
2021/12/14 14:09:07;;;;;;;12.55;7.65;;;10.60;72.00;;;;;;2315689;54;20946;-81
2021/12/14 14:11:36;;;;;;;11.45;7.35;;;10.60;71.50;;;;;;2525140;54;21559;-80
2021/12/14 14:14:05;;;;;;;11.40;6.82;;;10.60;72.00;;;;;;2555330;53;20931;-82
2021/12/14 14:17:04;;;;;;;12.75;7.72;;;10.60;72.20;;;;;;2555483;53;20927;-81
2021/12/14 14:19:45;;;;;;;9.93;6.35;;;10.60;72.10;;;;;;2316162;55;22018;-82
2021/12/14 14:22:37;;;;;;;10.60;5.87;;;10.60;72.00;;;;;;2554970;53;20895;-81
2021/12/14 14:25:15;;;;;;;11.23;6.70;;;10.60;71.70;;;;;;2574072;53;21479;-81